Time,TemperatureF,DewpointF,PressureIn,WindDirection,WindDirectionDegrees,WindSpeedMPH,WindSpeedGustMPH,Humidity,HourlyPrecipIn,Conditions,Clouds,dailyrainin,SoftwareType,DateUTC
2013-05-26 00:02:00,52.0,44.0,-100.00,North,355,0.0,0.0,72,-99.99,,,-99.99,,2013-05-26 05:02:00,
2013-05-26 00:12:00,52.0,44.0,-100.00,North,355,0.0,0.0,72,-99.99,,,-99.99,,2013-05-26 05:12:00,
2013-05-26 00:42:00,51.0,42.0,-100.00,North,355,0.0,0.0,72,-99.99,,,-99.99,,2013-05-26 05:42:00,
2013-05-26 00:52:00,51.0,42.0,-100.00,North,355,0.0,0.0,72,-99.99,,,-99.99,,2013-05-26 05:52:00,
2013-05-26 01:01:00,51.0,42.0,-100.00,North,355,0.0,0.0,72,-99.99,,,-99.99,,2013-05-26 06:01:00,
2013-05-26 01:12:00,51.0,42.0,-100.00,North,355,0.0,0.0,72,-99.99,,,-99.99,,2013-05-26 06:12:00,
2013-05-26 01:42:00,47.0,40.0,-100.00,North,355,0.0,0.0,77,-99.99,,,-99.99,,2013-05-26 06:42:00,
2013-05-26 01:52:00,47.0,40.0,-100.00,North,355,0.0,0.0,77,-99.99,,,-99.99,,2013-05-26 06:52:00,
2013-05-26 02:01:00,47.0,40.0,-100.00,North,355,0.0,0.0,77,-99.99,,,-99.99,,2013-05-26 07:01:00,
2013-05-26 02:11:00,47.0,40.0,-100.00,North,355,0.0,0.0,77,-99.99,,,-99.99,,2013-05-26 07:11:00,
2013-05-26 02:42:00,44.0,40.0,-100.00,North,355,0.0,0.0,83,-99.99,,,-99.99,,2013-05-26 07:42:00,
2013-05-26 02:52:00,44.0,40.0,-100.00,North,355,0.0,0.0,83,-99.99,,,-99.99,,2013-05-26 07:52:00,
2013-05-26 03:01:00,44.0,40.0,-100.00,North,355,0.0,0.0,83,-99.99,,,-99.99,,2013-05-26 08:01:00,
2013-05-26 03:12:00,44.0,40.0,-100.00,North,355,0.0,0.0,83,-99.99,,,-99.99,,2013-05-26 08:12:00,
2013-05-26 03:42:00,43.0,39.0,-100.00,North,355,0.0,0.0,88,-99.99,,,-99.99,,2013-05-26 08:42:00,
2013-05-26 03:53:00,43.0,39.0,-100.00,North,355,0.0,0.0,88,-99.99,,,-99.99,,2013-05-26 08:53:00,
2013-05-26 04:01:00,43.0,39.0,-100.00,North,355,0.0,0.0,88,-99.99,,,-99.99,,2013-05-26 09:01:00,
2013-05-26 04:11:00,43.0,39.0,-100.00,North,355,0.0,0.0,88,-99.99,,,-99.99,,2013-05-26 09:11:00,
2013-05-26 04:43:00,44.0,41.0,-100.00,North,355,0.0,0.0,89,-99.99,,,-99.99,,2013-05-26 09:43:00,
2013-05-26 04:53:00,44.0,41.0,-100.00,North,355,0.0,0.0,89,-99.99,,,-99.99,,2013-05-26 09:53:00,
2013-05-26 05:02:00,44.0,41.0,-100.00,North,355,0.0,0.0,89,-99.99,,,-99.99,,2013-05-26 10:02:00,
2013-05-26 05:12:00,44.0,41.0,-100.00,North,355,0.0,0.0,89,-99.99,,,-99.99,,2013-05-26 10:12:00,
2013-05-26 07:42:00,50.0,46.0,-100.00,North,355,0.0,0.0,88,-99.99,,,-99.99,,2013-05-26 12:42:00,
2013-05-26 07:52:00,50.0,46.0,-100.00,North,355,0.0,0.0,88,-99.99,,,-99.99,,2013-05-26 12:52:00,
2013-05-26 08:02:00,50.0,46.0,-100.00,North,355,0.0,0.0,88,-99.99,,,-99.99,,2013-05-26 13:02:00,
2013-05-26 08:11:00,50.0,46.0,-100.00,North,355,0.0,0.0,88,-99.99,,,-99.99,,2013-05-26 13:11:00,
2013-05-26 08:42:00,58.0,45.0,-100.00,North,355,0.0,0.0,64,-99.99,,,-99.99,,2013-05-26 13:42:00,
2013-05-26 08:52:00,58.0,45.0,-100.00,North,355,0.0,0.0,64,-99.99,,,-99.99,,2013-05-26 13:52:00,
2013-05-26 09:02:00,58.0,45.0,-100.00,North,355,0.0,0.0,64,-99.99,,,-99.99,,2013-05-26 14:02:00,
2013-05-26 09:11:00,58.0,45.0,-100.00,North,355,0.0,0.0,64,-99.99,,,-99.99,,2013-05-26 14:11:00,
2013-05-26 09:42:00,60.0,45.0,-100.00,North,355,0.0,0.0,58,-99.99,,,-99.99,,2013-05-26 14:42:00,
2013-05-26 09:52:00,60.0,45.0,-100.00,North,355,0.0,0.0,58,-99.99,,,-99.99,,2013-05-26 14:52:00,
2013-05-26 10:01:00,60.0,45.0,-100.00,North,355,0.0,0.0,58,-99.99,,,-99.99,,2013-05-26 15:01:00,
2013-05-26 10:12:00,60.0,45.0,-100.00,North,355,0.0,0.0,58,-99.99,,,-99.99,,2013-05-26 15:12:00,
2013-05-26 10:43:00,65.0,46.0,-100.00,North,355,0.0,0.0,51,-99.99,,,-99.99,,2013-05-26 15:43:00,
2013-05-26 10:53:00,65.0,46.0,-100.00,North,355,0.0,0.0,51,-99.99,,,-99.99,,2013-05-26 15:53:00,
2013-05-26 11:03:00,65.0,46.0,-100.00,North,355,0.0,0.0,51,-99.99,,,-99.99,,2013-05-26 16:03:00,
2013-05-26 11:12:00,65.0,46.0,-100.00,North,355,0.0,0.0,51,-99.99,,,-99.99,,2013-05-26 16:12:00,
2013-05-26 11:42:00,65.0,46.0,-100.00,North,355,0.0,0.0,51,-99.99,,,-99.99,,2013-05-26 16:42:00,
2013-05-26 11:53:00,65.0,46.0,-100.00,North,355,0.0,0.0,51,-99.99,,,-99.99,,2013-05-26 16:53:00,
2013-05-26 12:02:00,65.0,46.0,-100.00,North,355,0.0,0.0,51,-99.99,,,-99.99,,2013-05-26 17:02:00,
2013-05-26 12:11:00,65.0,46.0,-100.00,North,355,0.0,0.0,51,-99.99,,,-99.99,,2013-05-26 17:11:00,
2013-05-26 13:42:00,69.0,47.0,-100.00,North,355,0.0,0.0,46,-99.99,,,-99.99,,2013-05-26 18:42:00,
2013-05-26 13:52:00,69.0,47.0,-100.00,North,355,0.0,0.0,46,-99.99,,,-99.99,,2013-05-26 18:52:00,
2013-05-26 14:01:00,69.0,47.0,-100.00,North,355,0.0,0.0,46,-99.99,,,-99.99,,2013-05-26 19:01:00,
2013-05-26 14:11:00,69.0,47.0,-100.00,North,355,0.0,0.0,46,-99.99,,,-99.99,,2013-05-26 19:11:00,
2013-05-26 14:42:00,67.0,47.0,-100.00,North,355,0.0,0.0,49,-99.99,,,-99.99,,2013-05-26 19:42:00,
2013-05-26 14:52:00,67.0,47.0,-100.00,North,355,0.0,0.0,49,-99.99,,,-99.99,,2013-05-26 19:52:00,
2013-05-26 15:02:00,67.0,47.0,-100.00,North,355,0.0,0.0,49,-99.99,,,-99.99,,2013-05-26 20:02:00,
2013-05-26 15:11:00,67.0,47.0,-100.00,North,355,0.0,0.0,49,-99.99,,,-99.99,,2013-05-26 20:11:00,
2013-05-26 15:42:00,62.0,54.0,-100.00,North,355,0.0,0.0,75,-99.99,,,-99.99,,2013-05-26 20:42:00,
2013-05-26 15:52:00,62.0,54.0,-100.00,North,355,0.0,0.0,75,-99.99,,,-99.99,,2013-05-26 20:52:00,
2013-05-26 16:02:00,62.0,54.0,-100.00,North,355,0.0,0.0,75,-99.99,,,-99.99,,2013-05-26 21:02:00,
2013-05-26 16:11:00,62.0,54.0,-100.00,North,355,0.0,0.0,75,-99.99,,,-99.99,,2013-05-26 21:11:00,
2013-05-26 16:43:00,58.0,57.0,-100.00,North,355,0.0,0.0,96,-99.99,,,-99.99,,2013-05-26 21:43:00,
2013-05-26 16:53:00,58.0,57.0,-100.00,North,355,0.0,0.0,96,-99.99,,,-99.99,,2013-05-26 21:53:00,
2013-05-26 17:03:00,58.0,57.0,-100.00,North,355,0.0,0.0,96,-99.99,,,-99.99,,2013-05-26 22:03:00,
2013-05-26 17:12:00,58.0,57.0,-100.00,North,355,0.0,0.0,96,-99.99,,,-99.99,,2013-05-26 22:12:00,
2013-05-26 17:42:00,60.0,60.0,-100.00,North,355,0.0,0.0,99,-99.99,,,-99.99,,2013-05-26 22:42:00,
2013-05-26 17:53:00,60.0,60.0,-100.00,North,355,0.0,0.0,99,-99.99,,,-99.99,,2013-05-26 22:53:00,
2013-05-26 18:02:00,60.0,60.0,-100.00,North,355,0.0,0.0,99,-99.99,,,-99.99,,2013-05-26 23:02:00,
2013-05-26 18:12:00,60.0,60.0,-100.00,North,355,0.0,0.0,99,-99.99,,,-99.99,,2013-05-26 23:12:00,
2013-05-26 18:43:00,59.0,58.0,-100.00,North,355,0.0,0.0,99,-99.99,,,-99.99,,2013-05-26 23:43:00,
2013-05-26 18:52:00,59.0,58.0,-100.00,North,355,0.0,0.0,99,-99.99,,,-99.99,,2013-05-26 23:52:00,
2013-05-26 19:02:00,59.0,58.0,-100.00,North,355,0.0,0.0,99,-99.99,,,-99.99,,2013-05-27 00:02:00,
2013-05-26 19:11:00,59.0,58.0,-100.00,North,355,0.0,0.0,99,-99.99,,,-99.99,,2013-05-27 00:11:00,
2013-05-26 19:42:00,57.0,57.0,-100.00,North,355,0.0,0.0,99,-99.99,,,-99.99,,2013-05-27 00:42:00,
2013-05-26 19:52:00,57.0,57.0,-100.00,North,355,0.0,0.0,99,-99.99,,,-99.99,,2013-05-27 00:52:00,
2013-05-26 20:01:00,57.0,57.0,-100.00,North,355,0.0,0.0,99,-99.99,,,-99.99,,2013-05-27 01:01:00,
2013-05-26 20:11:00,57.0,57.0,-100.00,North,355,0.0,0.0,99,-99.99,,,-99.99,,2013-05-27 01:11:00,
2013-05-26 20:42:00,56.0,56.0,-100.00,North,355,0.0,0.0,99,-99.99,,,-99.99,,2013-05-27 01:42:00,
2013-05-26 20:52:00,56.0,56.0,-100.00,North,355,0.0,0.0,99,-99.99,,,-99.99,,2013-05-27 01:52:00,
2013-05-26 21:02:00,56.0,56.0,-100.00,North,355,0.0,0.0,99,-99.99,,,-99.99,,2013-05-27 02:02:00,
2013-05-26 21:11:00,56.0,56.0,-100.00,North,355,0.0,0.0,99,-99.99,,,-99.99,,2013-05-27 02:11:00,
2013-05-26 21:43:00,55.0,54.0,-100.00,North,355,0.0,0.0,99,-99.99,,,-99.99,,2013-05-27 02:43:00,
2013-05-26 21:52:00,55.0,54.0,-100.00,North,355,0.0,0.0,99,-99.99,,,-99.99,,2013-05-27 02:52:00,
2013-05-26 22:02:00,55.0,54.0,-100.00,North,355,0.0,0.0,99,-99.99,,,-99.99,,2013-05-27 03:02:00,
2013-05-26 22:11:00,55.0,54.0,-100.00,North,355,0.0,0.0,99,-99.99,,,-99.99,,2013-05-27 03:11:00,
2013-05-26 22:43:00,54.0,54.0,-100.00,North,355,0.0,0.0,99,-99.99,,,-99.99,,2013-05-27 03:43:00,
2013-05-26 22:53:00,54.0,54.0,-100.00,North,355,0.0,0.0,99,-99.99,,,-99.99,,2013-05-27 03:53:00,
2013-05-26 23:02:00,54.0,54.0,-100.00,North,355,0.0,0.0,99,-99.99,,,-99.99,,2013-05-27 04:02:00,
2013-05-26 23:12:00,54.0,54.0,-100.00,North,355,0.0,0.0,99,-99.99,,,-99.99,,2013-05-27 04:12:00,
2013-05-26 23:43:00,53.0,53.0,-100.00,North,355,0.0,0.0,99,-99.99,,,-99.99,,2013-05-27 04:43:00,
2013-05-26 23:52:00,53.0,53.0,-100.00,North,355,0.0,0.0,99,-99.99,,,-99.99,,2013-05-27 04:52:00,